TimeEDT,TemperatureF,Dew PointF,Humidity,Sea Level PressureIn,VisibilityMPH,Wind Direction,Wind SpeedMPH,Gust SpeedMPH,PrecipitationIn,Events,Conditions,WindDirDegrees,DateUTC
12:15 AM,64.4,60.8,88,30.16,10.0,Calm,Calm,-,N/A,,Clear,0,2013-09-16 04:15:00
12:35 AM,64.4,60.8,88,30.16,10.0,Calm,Calm,-,N/A,,Scattered Clouds,0,2013-09-16 04:35:00
12:55 AM,64.4,62.6,94,30.16,5.0,Calm,Calm,-,N/A,,Scattered Clouds,0,2013-09-16 04:55:00
1:15 AM,64.4,62.6,94,30.15,9.0,Calm,Calm,-,N/A,,Clear,0,2013-09-16 05:15:00
1:35 AM,62.6,60.8,94,30.15,10.0,Calm,Calm,-,N/A,,Partly Cloudy,0,2013-09-16 05:35:00
1:55 AM,64.4,62.6,94,30.15,10.0,Calm,Calm,-,N/A,,Mostly Cloudy,0,2013-09-16 05:55:00
2:15 AM,64.4,60.8,88,30.14,10.0,Calm,Calm,-,N/A,,Partly Cloudy,0,2013-09-16 06:15:00
2:35 AM,64.4,62.6,94,30.14,10.0,Calm,Calm,-,N/A,,Clear,0,2013-09-16 06:35:00
2:55 AM,64.4,60.8,88,30.14,10.0,Calm,Calm,-,N/A,,Clear,0,2013-09-16 06:55:00
3:15 AM,64.4,60.8,88,30.14,10.0,Calm,Calm,-,N/A,,Clear,0,2013-09-16 07:15:00
3:35 AM,64.4,60.8,88,30.13,10.0,Calm,Calm,-,N/A,,Clear,0,2013-09-16 07:35:00
3:55 AM,62.6,60.8,94,30.13,8.0,Calm,Calm,-,N/A,,Clear,0,2013-09-16 07:55:00
4:15 AM,62.6,60.8,94,30.13,8.0,Calm,Calm,-,N/A,,Clear,0,2013-09-16 08:15:00
4:35 AM,62.6,60.8,94,30.12,10.0,Calm,Calm,-,N/A,,Clear,0,2013-09-16 08:35:00
4:55 AM,62.6,60.8,94,30.12,8.0,Calm,Calm,-,N/A,,Clear,0,2013-09-16 08:55:00
5:15 AM,62.6,59.0,88,30.12,10.0,Calm,Calm,-,N/A,,Partly Cloudy,0,2013-09-16 09:15:00
5:35 AM,62.6,59.0,88,30.13,10.0,Calm,Calm,-,N/A,,Partly Cloudy,0,2013-09-16 09:35:00
5:55 AM,62.6,60.8,94,30.13,10.0,Calm,Calm,-,N/A,,Scattered Clouds,0,2013-09-16 09:55:00
6:15 AM,62.6,60.8,94,30.12,10.0,Calm,Calm,-,N/A,,Scattered Clouds,0,2013-09-16 10:15:00
6:35 AM,62.6,60.8,94,30.13,10.0,Calm,Calm,-,N/A,,Partly Cloudy,0,2013-09-16 10:35:00
6:55 AM,62.6,59.0,88,30.13,9.0,Calm,Calm,-,N/A,,Clear,0,2013-09-16 10:55:00
7:15 AM,62.6,59.0,88,30.13,10.0,Calm,Calm,-,N/A,,Clear,0,2013-09-16 11:15:00
7:35 AM,64.4,60.8,88,30.13,10.0,Calm,Calm,-,N/A,,Clear,0,2013-09-16 11:35:00
7:55 AM,64.4,60.8,88,30.13,10.0,Calm,Calm,-,N/A,,Clear,0,2013-09-16 11:55:00
8:15 AM,68.0,64.4,88,30.13,10.0,Calm,Calm,-,N/A,,Clear,0,2013-09-16 12:15:00
8:35 AM,73.4,68.0,83,30.13,10.0,Calm,Calm,-,N/A,,Clear,0,2013-09-16 12:35:00
8:55 AM,75.2,69.8,83,30.13,10.0,Calm,Calm,-,N/A,,Clear,0,2013-09-16 12:55:00
9:15 AM,78.8,71.6,78,30.13,10.0,SSW,6.9,-,N/A,,Clear,210,2013-09-16 13:15:00
9:35 AM,80.6,71.6,74,30.14,10.0,SW,6.9,-,N/A,,Clear,230,2013-09-16 13:35:00
9:55 AM,82.4,71.6,70,30.13,10.0,SSW,9.2,-,N/A,,Clear,210,2013-09-16 13:55:00
10:15 AM,84.2,71.6,66,30.13,10.0,SW,11.5,-,N/A,,Partly Cloudy,220,2013-09-16 14:15:00
10:35 AM,84.2,71.6,66,30.12,10.0,SW,10.4,-,N/A,,Scattered Clouds,230,2013-09-16 14:35:00
10:55 AM,84.2,71.6,66,30.12,10.0,SW,9.2,-,N/A,,Mostly Cloudy,230,2013-09-16 14:55:00
11:15 AM,84.2,71.6,66,30.11,10.0,SW,8.1,-,N/A,,Mostly Cloudy,220,2013-09-16 15:15:00
11:35 AM,84.2,71.6,66,30.11,10.0,WSW,9.2,-,N/A,,Scattered Clouds,240,2013-09-16 15:35:00
11:55 AM,86.0,71.6,62,30.10,10.0,SW,9.2,-,N/A,,Scattered Clouds,230,2013-09-16 15:55:00
12:15 PM,86.0,71.6,62,30.10,10.0,West,8.1,-,N/A,,Scattered Clouds,260,2013-09-16 16:15:00
12:35 PM,80.6,71.6,74,30.10,9.0,WNW,6.9,-,N/A,,Mostly Cloudy,300,2013-09-16 16:35:00
12:55 PM,77.0,69.8,78,30.11,9.0,NNW,9.2,21.9,N/A,,Mostly Cloudy,340,2013-09-16 16:55:00
1:15 PM,73.4,69.8,88,30.11,10.0,Calm,Calm,-,N/A,Thunderstorm,Thunderstorm,0,2013-09-16 17:15:00
1:35 PM,75.2,73.4,94,30.10,10.0,Calm,Calm,-,N/A,,Scattered Clouds,0,2013-09-16 17:35:00
1:55 PM,77.0,71.6,83,30.08,10.0,Calm,Calm,-,N/A,,Scattered Clouds,0,2013-09-16 17:55:00
2:15 PM,78.8,71.6,78,30.07,10.0,NNW,5.8,-,N/A,,Partly Cloudy,330,2013-09-16 18:15:00
2:35 PM,80.6,71.6,74,30.07,10.0,NW,8.1,-,N/A,,Scattered Clouds,320,2013-09-16 18:35:00
2:55 PM,80.6,71.6,74,30.07,10.0,WNW,4.6,-,N/A,,Partly Cloudy,300,2013-09-16 18:55:00
3:15 PM,80.6,71.6,74,30.06,10.0,North,3.5,-,N/A,,Partly Cloudy,350,2013-09-16 19:15:00
3:35 PM,80.6,69.8,70,30.06,10.0,NW,3.5,-,N/A,,Clear,320,2013-09-16 19:35:00
3:55 PM,82.4,71.6,70,30.06,10.0,ENE,4.6,-,N/A,,Partly Cloudy,70,2013-09-16 19:55:00
4:15 PM,80.6,69.8,70,30.05,10.0,Calm,Calm,-,N/A,,Scattered Clouds,0,2013-09-16 20:15:00
4:35 PM,82.4,69.8,66,30.05,10.0,East,3.5,-,N/A,,Partly Cloudy,80,2013-09-16 20:35:00
4:55 PM,82.4,69.8,66,30.05,10.0,NNE,4.6,-,N/A,,Partly Cloudy,20,2013-09-16 20:55:00
5:15 PM,82.4,69.8,66,30.04,10.0,NNE,4.6,-,N/A,,Clear,20,2013-09-16 21:15:00
5:35 PM,80.6,69.8,70,30.04,10.0,NNW,3.5,-,N/A,,Clear,330,2013-09-16 21:35:00
5:55 PM,80.6,69.8,70,30.04,10.0,Calm,Calm,-,N/A,,Clear,0,2013-09-16 21:55:00
6:15 PM,82.4,71.6,70,30.06,10.0,Calm,Calm,-,N/A,,Clear,0,2013-09-16 22:15:00
6:35 PM,80.6,71.6,74,30.06,10.0,Calm,Calm,-,N/A,,Partly Cloudy,0,2013-09-16 22:35:00
6:55 PM,78.8,71.6,78,30.07,10.0,Calm,Calm,-,N/A,,Clear,0,2013-09-16 22:55:00
7:15 PM,77.0,71.6,83,30.07,10.0,Calm,Calm,-,N/A,,Clear,0,2013-09-16 23:15:00
7:35 PM,75.2,71.6,89,30.07,10.0,Calm,Calm,-,N/A,,Clear,0,2013-09-16 23:35:00
7:55 PM,73.4,71.6,94,30.08,10.0,Calm,Calm,-,N/A,,Clear,0,2013-09-16 23:55:00
8:15 PM,73.4,71.6,94,30.08,8.0,Calm,Calm,-,N/A,,Clear,0,2013-09-17 00:15:00
8:35 PM,73.4,69.8,88,30.09,8.0,Calm,Calm,-,N/A,,Clear,0,2013-09-17 00:35:00
8:55 PM,71.6,69.8,94,30.10,5.0,Calm,Calm,-,N/A,,Mostly Cloudy,0,2013-09-17 00:55:00
9:15 PM,71.6,69.8,94,30.10,6.0,Calm,Calm,-,N/A,,Overcast,0,2013-09-17 01:15:00
9:35 PM,73.4,66.2,78,30.12,10.0,NNE,10.4,19.6,N/A,,Overcast,20,2013-09-17 01:35:00
9:55 PM,71.6,64.4,78,30.13,10.0,NNE,9.2,-,N/A,,Mostly Cloudy,20,2013-09-17 01:55:00
10:15 PM,71.6,64.4,78,30.14,10.0,NNE,9.2,-,N/A,,Mostly Cloudy,20,2013-09-17 02:15:00
10:35 PM,71.6,62.6,73,30.14,10.0,NNE,10.4,-,N/A,,Mostly Cloudy,30,2013-09-17 02:35:00
10:55 PM,69.8,62.6,78,30.14,10.0,NNE,9.2,-,N/A,,Partly Cloudy,20,2013-09-17 02:55:00
11:15 PM,69.8,62.6,78,30.15,10.0,North,5.8,-,N/A,,Partly Cloudy,10,2013-09-17 03:15:00
11:35 PM,69.8,62.6,78,30.15,10.0,North,5.8,-,N/A,,Scattered Clouds,10,2013-09-17 03:35:00
11:55 PM,69.8,60.8,73,30.16,10.0,NNE,8.1,-,N/A,,Mostly Cloudy,20,2013-09-17 03:55:00